sensor_id;sensor_type;location;lat;lon;timestamp;P1;durP1;ratioP1;P2;durP2;ratioP2
18776;SDS011;9517;51.174;4.160;2024-03-08T00:01:31;59.13;;;28.43;;
18776;SDS011;9517;51.174;4.160;2024-03-08T00:03:58;58.37;;;27.37;;
18776;SDS011;9517;51.174;4.160;2024-03-08T00:06:27;66.00;;;29.43;;
18776;SDS011;9517;51.174;4.160;2024-03-08T00:08:54;60.67;;;28.77;;
18776;SDS011;9517;51.174;4.160;2024-03-08T00:11:21;67.87;;;29.90;;
18776;SDS011;9517;51.174;4.160;2024-03-08T00:13:51;66.63;;;30.23;;
18776;SDS011;9517;51.174;4.160;2024-03-08T00:16:18;66.47;;;29.93;;
18776;SDS011;9517;51.174;4.160;2024-03-08T00:18:45;68.43;;;28.67;;
18776;SDS011;9517;51.174;4.160;2024-03-08T00:21:14;71.57;;;31.77;;
18776;SDS011;9517;51.174;4.160;2024-03-08T00:23:43;67.40;;;31.53;;
18776;SDS011;9517;51.174;4.160;2024-03-08T00:26:10;67.03;;;30.10;;
18776;SDS011;9517;51.174;4.160;2024-03-08T00:28:37;68.60;;;31.27;;
18776;SDS011;9517;51.174;4.160;2024-03-08T00:31:04;67.10;;;30.83;;
18776;SDS011;9517;51.174;4.160;2024-03-08T00:33:32;68.63;;;31.23;;
18776;SDS011;9517;51.174;4.160;2024-03-08T00:35:59;64.43;;;30.07;;
18776;SDS011;9517;51.174;4.160;2024-03-08T00:38:26;64.37;;;29.17;;
18776;SDS011;9517;51.174;4.160;2024-03-08T00:40:54;66.77;;;30.57;;
18776;SDS011;9517;51.174;4.160;2024-03-08T00:43:21;67.37;;;30.00;;
18776;SDS011;9517;51.174;4.160;2024-03-08T00:45:49;64.67;;;29.60;;
18776;SDS011;9517;51.174;4.160;2024-03-08T00:48:16;68.83;;;29.10;;
18776;SDS011;9517;51.174;4.160;2024-03-08T00:50:43;69.83;;;29.60;;
18776;SDS011;9517;51.174;4.160;2024-03-08T00:53:13;63.80;;;28.40;;
18776;SDS011;9517;51.174;4.160;2024-03-08T00:55:40;72.27;;;30.70;;
18776;SDS011;9517;51.174;4.160;2024-03-08T00:58:09;64.87;;;28.97;;
18776;SDS011;9517;51.174;4.160;2024-03-08T01:00:36;61.53;;;29.93;;
18776;SDS011;9517;51.174;4.160;2024-03-08T01:03:04;63.53;;;29.00;;
18776;SDS011;9517;51.174;4.160;2024-03-08T01:05:32;67.00;;;30.43;;
18776;SDS011;9517;51.174;4.160;2024-03-08T01:08:00;64.27;;;28.20;;
18776;SDS011;9517;51.174;4.160;2024-03-08T01:10:28;64.20;;;29.53;;
18776;SDS011;9517;51.174;4.160;2024-03-08T01:12:55;62.63;;;28.73;;
18776;SDS011;9517;51.174;4.160;2024-03-08T01:15:26;67.53;;;29.37;;
18776;SDS011;9517;51.174;4.160;2024-03-08T01:17:53;61.70;;;29.13;;
18776;SDS011;9517;51.174;4.160;2024-03-08T01:20:20;65.40;;;29.97;;
18776;SDS011;9517;51.174;4.160;2024-03-08T01:22:47;59.93;;;29.77;;
18776;SDS011;9517;51.174;4.160;2024-03-08T01:25:14;63.00;;;29.57;;
18776;SDS011;9517;51.174;4.160;2024-03-08T01:27:41;66.67;;;28.90;;
18776;SDS011;9517;51.174;4.160;2024-03-08T01:30:09;65.03;;;30.07;;
18776;SDS011;9517;51.174;4.160;2024-03-08T01:32:39;61.70;;;29.90;;
18776;SDS011;9517;51.174;4.160;2024-03-08T01:35:06;70.23;;;29.70;;
18776;SDS011;9517;51.174;4.160;2024-03-08T01:37:35;67.50;;;30.67;;
18776;SDS011;9517;51.174;4.160;2024-03-08T01:40:03;64.30;;;29.63;;
18776;SDS011;9517;51.174;4.160;2024-03-08T01:42:30;66.73;;;30.87;;
18776;SDS011;9517;51.174;4.160;2024-03-08T01:44:58;67.57;;;29.60;;
18776;SDS011;9517;51.174;4.160;2024-03-08T01:47:25;61.73;;;29.30;;
18776;SDS011;9517;51.174;4.160;2024-03-08T01:49:54;60.73;;;30.43;;
18776;SDS011;9517;51.174;4.160;2024-03-08T01:52:21;64.13;;;30.17;;
18776;SDS011;9517;51.174;4.160;2024-03-08T01:54:50;60.90;;;30.70;;
18776;SDS011;9517;51.174;4.160;2024-03-08T01:57:17;68.07;;;30.63;;
18776;SDS011;9517;51.174;4.160;2024-03-08T01:59:44;63.07;;;29.80;;
18776;SDS011;9517;51.174;4.160;2024-03-08T02:02:12;61.93;;;30.57;;
18776;SDS011;9517;51.174;4.160;2024-03-08T02:04:43;65.07;;;30.17;;
18776;SDS011;9517;51.174;4.160;2024-03-08T02:07:12;62.80;;;30.60;;
18776;SDS011;9517;51.174;4.160;2024-03-08T02:09:39;67.43;;;31.17;;
18776;SDS011;9517;51.174;4.160;2024-03-08T02:12:07;60.90;;;30.93;;
18776;SDS011;9517;51.174;4.160;2024-03-08T02:14:34;58.40;;;29.83;;
18776;SDS011;9517;51.174;4.160;2024-03-08T02:17:02;61.37;;;30.77;;
18776;SDS011;9517;51.174;4.160;2024-03-08T02:19:28;62.30;;;30.33;;
18776;SDS011;9517;51.174;4.160;2024-03-08T02:21:56;56.97;;;28.33;;
18776;SDS011;9517;51.174;4.160;2024-03-08T02:24:24;60.83;;;29.87;;
18776;SDS011;9517;51.174;4.160;2024-03-08T02:26:51;65.57;;;31.97;;
18776;SDS011;9517;51.174;4.160;2024-03-08T02:29:19;62.73;;;29.40;;
18776;SDS011;9517;51.174;4.160;2024-03-08T02:31:47;56.07;;;29.27;;
18776;SDS011;9517;51.174;4.160;2024-03-08T02:34:14;57.13;;;28.53;;
18776;SDS011;9517;51.174;4.160;2024-03-08T02:36:41;54.13;;;29.43;;
18776;SDS011;9517;51.174;4.160;2024-03-08T02:39:09;59.13;;;29.67;;
18776;SDS011;9517;51.174;4.160;2024-03-08T02:41:36;57.80;;;29.73;;
18776;SDS011;9517;51.174;4.160;2024-03-08T02:44:04;56.73;;;28.70;;
18776;SDS011;9517;51.174;4.160;2024-03-08T02:46:32;54.50;;;29.43;;
18776;SDS011;9517;51.174;4.160;2024-03-08T02:49:00;52.73;;;29.33;;
18776;SDS011;9517;51.174;4.160;2024-03-08T02:51:28;59.80;;;29.97;;
18776;SDS011;9517;51.174;4.160;2024-03-08T02:53:56;61.90;;;31.13;;
18776;SDS011;9517;51.174;4.160;2024-03-08T02:56:24;58.93;;;30.37;;
18776;SDS011;9517;51.174;4.160;2024-03-08T02:58:51;57.70;;;30.50;;
18776;SDS011;9517;51.174;4.160;2024-03-08T03:01:21;63.57;;;30.17;;
18776;SDS011;9517;51.174;4.160;2024-03-08T03:03:48;58.13;;;29.37;;
18776;SDS011;9517;51.174;4.160;2024-03-08T03:06:15;61.03;;;30.87;;
18776;SDS011;9517;51.174;4.160;2024-03-08T03:08:43;58.37;;;30.00;;
18776;SDS011;9517;51.174;4.160;2024-03-08T03:11:11;55.03;;;29.60;;
18776;SDS011;9517;51.174;4.160;2024-03-08T03:13:41;57.37;;;29.17;;
18776;SDS011;9517;51.174;4.160;2024-03-08T03:16:16;57.60;;;29.77;;
18776;SDS011;9517;51.174;4.160;2024-03-08T03:18:45;56.17;;;29.63;;
18776;SDS011;9517;51.174;4.160;2024-03-08T03:21:13;56.63;;;29.87;;
18776;SDS011;9517;51.174;4.160;2024-03-08T03:23:40;56.07;;;28.77;;
18776;SDS011;9517;51.174;4.160;2024-03-08T03:26:07;58.50;;;30.03;;
18776;SDS011;9517;51.174;4.160;2024-03-08T03:28:36;60.27;;;29.73;;
18776;SDS011;9517;51.174;4.160;2024-03-08T03:31:06;55.60;;;31.27;;
18776;SDS011;9517;51.174;4.160;2024-03-08T03:33:35;54.37;;;28.77;;
18776;SDS011;9517;51.174;4.160;2024-03-08T03:36:02;54.80;;;29.07;;
18776;SDS011;9517;51.174;4.160;2024-03-08T03:38:30;53.00;;;29.37;;
18776;SDS011;9517;51.174;4.160;2024-03-08T03:40:57;52.20;;;29.10;;
18776;SDS011;9517;51.174;4.160;2024-03-08T03:43:31;55.10;;;27.60;;
18776;SDS011;9517;51.174;4.160;2024-03-08T03:45:58;50.90;;;26.40;;
18776;SDS011;9517;51.174;4.160;2024-03-08T03:48:27;51.33;;;29.40;;
18776;SDS011;9517;51.174;4.160;2024-03-08T03:50:54;49.23;;;27.70;;
18776;SDS011;9517;51.174;4.160;2024-03-08T03:53:21;50.93;;;28.57;;
18776;SDS011;9517;51.174;4.160;2024-03-08T03:55:48;55.43;;;28.60;;
18776;SDS011;9517;51.174;4.160;2024-03-08T03:58:15;51.27;;;27.70;;
18776;SDS011;9517;51.174;4.160;2024-03-08T04:00:47;49.50;;;27.50;;
18776;SDS011;9517;51.174;4.160;2024-03-08T04:03:14;53.43;;;27.37;;
18776;SDS011;9517;51.174;4.160;2024-03-08T04:05:43;48.13;;;27.23;;
18776;SDS011;9517;51.174;4.160;2024-03-08T04:08:12;47.27;;;26.57;;
18776;SDS011;9517;51.174;4.160;2024-03-08T04:10:39;49.30;;;27.77;;
18776;SDS011;9517;51.174;4.160;2024-03-08T04:13:07;52.07;;;26.43;;
18776;SDS011;9517;51.174;4.160;2024-03-08T04:15:34;52.93;;;28.73;;
18776;SDS011;9517;51.174;4.160;2024-03-08T04:18:03;50.63;;;27.87;;
18776;SDS011;9517;51.174;4.160;2024-03-08T04:20:30;51.43;;;27.27;;
18776;SDS011;9517;51.174;4.160;2024-03-08T04:22:59;47.77;;;26.57;;
18776;SDS011;9517;51.174;4.160;2024-03-08T04:25:26;50.97;;;27.17;;
18776;SDS011;9517;51.174;4.160;2024-03-08T04:28:00;53.53;;;28.10;;
18776;SDS011;9517;51.174;4.160;2024-03-08T04:30:27;51.37;;;27.63;;
18776;SDS011;9517;51.174;4.160;2024-03-08T04:32:55;50.87;;;27.27;;
18776;SDS011;9517;51.174;4.160;2024-03-08T04:35:22;48.03;;;27.67;;
18776;SDS011;9517;51.174;4.160;2024-03-08T04:37:49;49.73;;;27.17;;
18776;SDS011;9517;51.174;4.160;2024-03-08T04:40:18;48.83;;;27.70;;
18776;SDS011;9517;51.174;4.160;2024-03-08T04:42:45;55.30;;;27.73;;
18776;SDS011;9517;51.174;4.160;2024-03-08T04:45:16;51.73;;;27.60;;
18776;SDS011;9517;51.174;4.160;2024-03-08T04:47:43;48.13;;;26.13;;
18776;SDS011;9517;51.174;4.160;2024-03-08T04:50:10;52.93;;;28.47;;
18776;SDS011;9517;51.174;4.160;2024-03-08T04:52:38;49.10;;;28.57;;
18776;SDS011;9517;51.174;4.160;2024-03-08T04:55:05;49.07;;;27.03;;
18776;SDS011;9517;51.174;4.160;2024-03-08T04:57:34;54.17;;;28.07;;
18776;SDS011;9517;51.174;4.160;2024-03-08T05:00:01;49.87;;;27.47;;
18776;SDS011;9517;51.174;4.160;2024-03-08T05:02:35;47.77;;;27.83;;
18776;SDS011;9517;51.174;4.160;2024-03-08T05:05:04;46.80;;;26.23;;
18776;SDS011;9517;51.174;4.160;2024-03-08T05:07:32;53.77;;;27.73;;
18776;SDS011;9517;51.174;4.160;2024-03-08T05:10:00;56.00;;;28.67;;
18776;SDS011;9517;51.174;4.160;2024-03-08T05:12:28;50.87;;;27.30;;
18776;SDS011;9517;51.174;4.160;2024-03-08T05:14:57;49.43;;;27.53;;
18776;SDS011;9517;51.174;4.160;2024-03-08T05:17:25;51.80;;;27.60;;
18776;SDS011;9517;51.174;4.160;2024-03-08T05:19:53;48.00;;;27.50;;
18776;SDS011;9517;51.174;4.160;2024-03-08T05:22:20;54.57;;;28.23;;
18776;SDS011;9517;51.174;4.160;2024-03-08T05:24:59;51.63;;;28.43;;
18776;SDS011;9517;51.174;4.160;2024-03-08T05:27:45;50.27;;;26.03;;
18776;SDS011;9517;51.174;4.160;2024-03-08T05:30:19;52.07;;;27.37;;
18776;SDS011;9517;51.174;4.160;2024-03-08T05:32:50;53.90;;;28.77;;
18776;SDS011;9517;51.174;4.160;2024-03-08T05:35:17;50.27;;;27.37;;
18776;SDS011;9517;51.174;4.160;2024-03-08T05:37:45;51.37;;;28.00;;
18776;SDS011;9517;51.174;4.160;2024-03-08T05:40:13;50.50;;;28.27;;
18776;SDS011;9517;51.174;4.160;2024-03-08T05:42:40;51.23;;;28.27;;
18776;SDS011;9517;51.174;4.160;2024-03-08T05:45:07;50.03;;;26.80;;
18776;SDS011;9517;51.174;4.160;2024-03-08T05:47:40;52.53;;;28.87;;
18776;SDS011;9517;51.174;4.160;2024-03-08T05:50:07;53.03;;;27.93;;
18776;SDS011;9517;51.174;4.160;2024-03-08T05:52:36;52.93;;;28.93;;
18776;SDS011;9517;51.174;4.160;2024-03-08T05:55:04;48.07;;;27.70;;
18776;SDS011;9517;51.174;4.160;2024-03-08T06:08:13;53.10;;;27.67;;
18776;SDS011;9517;51.174;4.160;2024-03-08T06:10:41;54.27;;;28.10;;
18776;SDS011;9517;51.174;4.160;2024-03-08T06:13:09;52.40;;;27.63;;
18776;SDS011;9517;51.174;4.160;2024-03-08T06:15:37;53.67;;;28.63;;
18776;SDS011;9517;51.174;4.160;2024-03-08T06:18:04;53.43;;;28.33;;
18776;SDS011;9517;51.174;4.160;2024-03-08T06:20:35;54.10;;;28.73;;
18776;SDS011;9517;51.174;4.160;2024-03-08T06:23:03;64.07;;;37.70;;
18776;SDS011;9517;51.174;4.160;2024-03-08T06:25:31;59.73;;;31.80;;
18776;SDS011;9517;51.174;4.160;2024-03-08T06:28:00;51.97;;;28.37;;
18776;SDS011;9517;51.174;4.160;2024-03-08T06:30:27;52.00;;;27.27;;
18776;SDS011;9517;51.174;4.160;2024-03-08T06:32:56;50.40;;;27.70;;
18776;SDS011;9517;51.174;4.160;2024-03-08T06:35:24;52.30;;;27.60;;
18776;SDS011;9517;51.174;4.160;2024-03-08T06:37:51;54.20;;;28.27;;
18776;SDS011;9517;51.174;4.160;2024-03-08T06:40:18;53.60;;;28.10;;
18776;SDS011;9517;51.174;4.160;2024-03-08T06:42:47;49.67;;;28.13;;
18776;SDS011;9517;51.174;4.160;2024-03-08T06:45:15;58.50;;;27.93;;
18776;SDS011;9517;51.174;4.160;2024-03-08T06:47:45;50.13;;;27.90;;
18776;SDS011;9517;51.174;4.160;2024-03-08T06:50:12;51.10;;;28.10;;
18776;SDS011;9517;51.174;4.160;2024-03-08T06:52:40;52.03;;;28.43;;
18776;SDS011;9517;51.174;4.160;2024-03-08T06:55:11;51.10;;;27.93;;
18776;SDS011;9517;51.174;4.160;2024-03-08T06:57:38;52.17;;;28.17;;
18776;SDS011;9517;51.174;4.160;2024-03-08T07:00:08;49.40;;;27.37;;
18776;SDS011;9517;51.174;4.160;2024-03-08T07:02:38;50.23;;;27.97;;
18776;SDS011;9517;51.174;4.160;2024-03-08T07:05:07;53.83;;;28.67;;
18776;SDS011;9517;51.174;4.160;2024-03-08T07:07:35;49.70;;;26.60;;
18776;SDS011;9517;51.174;4.160;2024-03-08T07:10:03;54.43;;;28.37;;
18776;SDS011;9517;51.174;4.160;2024-03-08T07:12:31;48.73;;;26.20;;
18776;SDS011;9517;51.174;4.160;2024-03-08T07:14:58;54.10;;;27.93;;
18776;SDS011;9517;51.174;4.160;2024-03-08T07:17:27;49.63;;;27.23;;
18776;SDS011;9517;51.174;4.160;2024-03-08T07:19:54;50.90;;;27.07;;
18776;SDS011;9517;51.174;4.160;2024-03-08T07:22:24;49.60;;;27.40;;
18776;SDS011;9517;51.174;4.160;2024-03-08T07:24:51;46.10;;;25.50;;
18776;SDS011;9517;51.174;4.160;2024-03-08T07:27:40;50.10;;;26.93;;
18776;SDS011;9517;51.174;4.160;2024-03-08T07:30:07;54.33;;;27.50;;
18776;SDS011;9517;51.174;4.160;2024-03-08T07:32:37;49.47;;;25.70;;
18776;SDS011;9517;51.174;4.160;2024-03-08T07:35:04;48.77;;;26.10;;
18776;SDS011;9517;51.174;4.160;2024-03-08T07:37:32;49.23;;;26.63;;
18776;SDS011;9517;51.174;4.160;2024-03-08T07:39:59;50.83;;;27.00;;
18776;SDS011;9517;51.174;4.160;2024-03-08T07:42:26;48.33;;;25.13;;
18776;SDS011;9517;51.174;4.160;2024-03-08T07:44:53;50.13;;;25.47;;
18776;SDS011;9517;51.174;4.160;2024-03-08T07:47:20;49.07;;;25.87;;
18776;SDS011;9517;51.174;4.160;2024-03-08T07:49:49;50.07;;;25.80;;
18776;SDS011;9517;51.174;4.160;2024-03-08T07:52:16;47.07;;;25.70;;
18776;SDS011;9517;51.174;4.160;2024-03-08T07:54:43;48.17;;;25.17;;
18776;SDS011;9517;51.174;4.160;2024-03-08T07:57:11;42.70;;;24.23;;
18776;SDS011;9517;51.174;4.160;2024-03-08T07:59:38;44.37;;;25.07;;
18776;SDS011;9517;51.174;4.160;2024-03-08T08:02:05;48.60;;;24.37;;
18776;SDS011;9517;51.174;4.160;2024-03-08T08:04:32;44.47;;;24.47;;
18776;SDS011;9517;51.174;4.160;2024-03-08T08:07:01;43.63;;;24.20;;
18776;SDS011;9517;51.174;4.160;2024-03-08T08:09:28;50.40;;;24.70;;
18776;SDS011;9517;51.174;4.160;2024-03-08T08:11:59;45.63;;;24.40;;
18776;SDS011;9517;51.174;4.160;2024-03-08T08:14:28;44.47;;;23.23;;
18776;SDS011;9517;51.174;4.160;2024-03-08T08:16:56;46.33;;;24.80;;
18776;SDS011;9517;51.174;4.160;2024-03-08T08:19:25;42.33;;;23.53;;
18776;SDS011;9517;51.174;4.160;2024-03-08T08:21:53;40.67;;;22.83;;
18776;SDS011;9517;51.174;4.160;2024-03-08T08:24:22;44.37;;;23.47;;
18776;SDS011;9517;51.174;4.160;2024-03-08T08:26:49;40.80;;;22.87;;
18776;SDS011;9517;51.174;4.160;2024-03-08T08:29:17;44.30;;;24.00;;
18776;SDS011;9517;51.174;4.160;2024-03-08T08:31:45;43.50;;;23.50;;
18776;SDS011;9517;51.174;4.160;2024-03-08T08:34:12;43.67;;;22.50;;
18776;SDS011;9517;51.174;4.160;2024-03-08T08:36:40;42.43;;;23.20;;
18776;SDS011;9517;51.174;4.160;2024-03-08T08:39:07;44.53;;;22.60;;
18776;SDS011;9517;51.174;4.160;2024-03-08T08:41:40;41.20;;;22.17;;
18776;SDS011;9517;51.174;4.160;2024-03-08T08:44:07;46.93;;;21.43;;
18776;SDS011;9517;51.174;4.160;2024-03-08T08:46:37;43.87;;;21.83;;
18776;SDS011;9517;51.174;4.160;2024-03-08T08:49:04;41.73;;;22.20;;
18776;SDS011;9517;51.174;4.160;2024-03-08T08:51:31;39.33;;;21.50;;
18776;SDS011;9517;51.174;4.160;2024-03-08T08:53:59;42.50;;;21.73;;
18776;SDS011;9517;51.174;4.160;2024-03-08T09:01:38;36.40;;;19.90;;
18776;SDS011;9517;51.174;4.160;2024-03-08T09:04:05;40.37;;;20.43;;
18776;SDS011;9517;51.174;4.160;2024-03-08T09:06:33;39.73;;;21.23;;
18776;SDS011;9517;51.174;4.160;2024-03-08T09:09:01;37.07;;;20.13;;
18776;SDS011;9517;51.174;4.160;2024-03-08T09:11:29;38.00;;;20.80;;
18776;SDS011;9517;51.174;4.160;2024-03-08T09:13:56;39.00;;;20.23;;
18776;SDS011;9517;51.174;4.160;2024-03-08T09:16:23;37.77;;;19.77;;
18776;SDS011;9517;51.174;4.160;2024-03-08T09:18:52;35.77;;;19.43;;
18776;SDS011;9517;51.174;4.160;2024-03-08T09:21:19;37.47;;;20.33;;
18776;SDS011;9517;51.174;4.160;2024-03-08T09:23:47;40.33;;;19.40;;
18776;SDS011;9517;51.174;4.160;2024-03-08T09:26:14;42.83;;;20.77;;
18776;SDS011;9517;51.174;4.160;2024-03-08T09:28:42;36.43;;;19.80;;
18776;SDS011;9517;51.174;4.160;2024-03-08T09:31:10;36.70;;;19.57;;
18776;SDS011;9517;51.174;4.160;2024-03-08T09:33:37;37.30;;;20.97;;
18776;SDS011;9517;51.174;4.160;2024-03-08T09:36:06;37.40;;;19.93;;
18776;SDS011;9517;51.174;4.160;2024-03-08T09:38:33;36.10;;;19.17;;
18776;SDS011;9517;51.174;4.160;2024-03-08T09:41:01;34.33;;;18.13;;
18776;SDS011;9517;51.174;4.160;2024-03-08T09:43:29;34.77;;;18.20;;
18776;SDS011;9517;51.174;4.160;2024-03-08T09:45:56;33.80;;;18.83;;
18776;SDS011;9517;51.174;4.160;2024-03-08T09:48:24;35.50;;;19.30;;
18776;SDS011;9517;51.174;4.160;2024-03-08T09:50:54;35.60;;;18.03;;
18776;SDS011;9517;51.174;4.160;2024-03-08T09:53:23;36.20;;;18.27;;
18776;SDS011;9517;51.174;4.160;2024-03-08T09:55:51;32.90;;;17.70;;
18776;SDS011;9517;51.174;4.160;2024-03-08T09:58:18;33.07;;;17.47;;
18776;SDS011;9517;51.174;4.160;2024-03-08T10:01:03;35.53;;;18.20;;
18776;SDS011;9517;51.174;4.160;2024-03-08T10:03:31;32.43;;;18.73;;
18776;SDS011;9517;51.174;4.160;2024-03-08T10:06:00;28.70;;;16.73;;
18776;SDS011;9517;51.174;4.160;2024-03-08T10:08:28;32.37;;;17.37;;
18776;SDS011;9517;51.174;4.160;2024-03-08T10:10:56;30.53;;;16.90;;
18776;SDS011;9517;51.174;4.160;2024-03-08T10:13:23;31.40;;;17.10;;
18776;SDS011;9517;51.174;4.160;2024-03-08T10:15:52;31.77;;;17.83;;
18776;SDS011;9517;51.174;4.160;2024-03-08T10:18:19;30.00;;;16.17;;
18776;SDS011;9517;51.174;4.160;2024-03-08T10:20:59;31.40;;;16.90;;
18776;SDS011;9517;51.174;4.160;2024-03-08T10:23:31;31.90;;;17.43;;
18776;SDS011;9517;51.174;4.160;2024-03-08T10:26:09;30.57;;;17.10;;
18776;SDS011;9517;51.174;4.160;2024-03-08T10:28:39;28.53;;;15.97;;
18776;SDS011;9517;51.174;4.160;2024-03-08T10:31:08;29.93;;;16.67;;
18776;SDS011;9517;51.174;4.160;2024-03-08T10:33:35;29.77;;;15.97;;
18776;SDS011;9517;51.174;4.160;2024-03-08T10:36:05;34.50;;;16.63;;
18776;SDS011;9517;51.174;4.160;2024-03-08T10:38:36;30.87;;;16.00;;
18776;SDS011;9517;51.174;4.160;2024-03-08T10:41:04;27.97;;;16.23;;
18776;SDS011;9517;51.174;4.160;2024-03-08T10:43:33;29.03;;;15.90;;
18776;SDS011;9517;51.174;4.160;2024-03-08T10:46:13;28.50;;;16.07;;
18776;SDS011;9517;51.174;4.160;2024-03-08T10:48:49;30.33;;;16.57;;
18776;SDS011;9517;51.174;4.160;2024-03-08T10:51:18;27.57;;;15.87;;
18776;SDS011;9517;51.174;4.160;2024-03-08T10:53:47;30.63;;;16.37;;
18776;SDS011;9517;51.174;4.160;2024-03-08T10:56:16;29.57;;;16.83;;
18776;SDS011;9517;51.174;4.160;2024-03-08T10:58:43;31.00;;;15.33;;
18776;SDS011;9517;51.174;4.160;2024-03-08T11:01:12;26.70;;;15.63;;
18776;SDS011;9517;51.174;4.160;2024-03-08T11:03:46;28.60;;;15.47;;
18776;SDS011;9517;51.174;4.160;2024-03-08T11:06:18;27.20;;;16.07;;
18776;SDS011;9517;51.174;4.160;2024-03-08T11:08:50;27.80;;;15.83;;
18776;SDS011;9517;51.174;4.160;2024-03-08T11:11:23;27.13;;;15.83;;
18776;SDS011;9517;51.174;4.160;2024-03-08T11:13:55;28.27;;;16.30;;
18776;SDS011;9517;51.174;4.160;2024-03-08T11:16:38;30.50;;;15.43;;
18776;SDS011;9517;51.174;4.160;2024-03-08T11:19:25;28.13;;;15.33;;
18776;SDS011;9517;51.174;4.160;2024-03-08T11:21:57;24.47;;;14.80;;
18776;SDS011;9517;51.174;4.160;2024-03-08T11:24:27;28.10;;;16.43;;
18776;SDS011;9517;51.174;4.160;2024-03-08T11:26:56;26.37;;;15.53;;
18776;SDS011;9517;51.174;4.160;2024-03-08T11:29:32;25.20;;;15.20;;
18776;SDS011;9517;51.174;4.160;2024-03-08T11:32:05;27.73;;;15.13;;
18776;SDS011;9517;51.174;4.160;2024-03-08T11:34:34;24.50;;;14.67;;
18776;SDS011;9517;51.174;4.160;2024-03-08T11:37:03;25.73;;;15.73;;
18776;SDS011;9517;51.174;4.160;2024-03-08T11:39:36;23.87;;;14.23;;
18776;SDS011;9517;51.174;4.160;2024-03-08T11:42:03;23.03;;;14.30;;
18776;SDS011;9517;51.174;4.160;2024-03-08T11:44:31;25.53;;;14.37;;
18776;SDS011;9517;51.174;4.160;2024-03-08T11:46:59;26.53;;;15.27;;
18776;SDS011;9517;51.174;4.160;2024-03-08T11:49:26;27.03;;;15.20;;
18776;SDS011;9517;51.174;4.160;2024-03-08T11:51:54;26.07;;;15.97;;
18776;SDS011;9517;51.174;4.160;2024-03-08T11:54:22;28.07;;;15.17;;
18776;SDS011;9517;51.174;4.160;2024-03-08T11:56:52;27.83;;;15.43;;
18776;SDS011;9517;51.174;4.160;2024-03-08T11:59:23;26.60;;;15.60;;
18776;SDS011;9517;51.174;4.160;2024-03-08T12:02:01;25.33;;;15.10;;
18776;SDS011;9517;51.174;4.160;2024-03-08T12:04:30;25.60;;;15.30;;
18776;SDS011;9517;51.174;4.160;2024-03-08T12:06:59;25.87;;;14.73;;
18776;SDS011;9517;51.174;4.160;2024-03-08T12:09:33;23.33;;;14.73;;
18776;SDS011;9517;51.174;4.160;2024-03-08T12:12:03;24.50;;;14.90;;
18776;SDS011;9517;51.174;4.160;2024-03-08T12:14:33;25.50;;;15.17;;
18776;SDS011;9517;51.174;4.160;2024-03-08T12:17:01;27.63;;;16.03;;
18776;SDS011;9517;51.174;4.160;2024-03-08T12:19:30;23.30;;;14.70;;
18776;SDS011;9517;51.174;4.160;2024-03-08T12:21:57;25.80;;;14.97;;
18776;SDS011;9517;51.174;4.160;2024-03-08T12:24:35;23.07;;;14.93;;
18776;SDS011;9517;51.174;4.160;2024-03-08T12:27:18;24.97;;;14.90;;
18776;SDS011;9517;51.174;4.160;2024-03-08T12:29:46;26.23;;;15.10;;
18776;SDS011;9517;51.174;4.160;2024-03-08T12:32:13;25.87;;;15.07;;
18776;SDS011;9517;51.174;4.160;2024-03-08T12:34:40;26.30;;;15.77;;
18776;SDS011;9517;51.174;4.160;2024-03-08T12:37:07;26.17;;;14.57;;
18776;SDS011;9517;51.174;4.160;2024-03-08T12:39:35;23.13;;;13.67;;
18776;SDS011;9517;51.174;4.160;2024-03-08T12:42:03;25.83;;;13.93;;
18776;SDS011;9517;51.174;4.160;2024-03-08T12:44:33;24.77;;;15.63;;
18776;SDS011;9517;51.174;4.160;2024-03-08T12:47:00;25.00;;;14.67;;
18776;SDS011;9517;51.174;4.160;2024-03-08T12:49:27;26.47;;;15.00;;
18776;SDS011;9517;51.174;4.160;2024-03-08T12:51:56;24.53;;;15.43;;
18776;SDS011;9517;51.174;4.160;2024-03-08T12:54:23;25.00;;;14.97;;
18776;SDS011;9517;51.174;4.160;2024-03-08T12:56:50;25.33;;;13.93;;
18776;SDS011;9517;51.174;4.160;2024-03-08T12:59:19;25.63;;;14.53;;
18776;SDS011;9517;51.174;4.160;2024-03-08T13:01:48;29.50;;;15.47;;
18776;SDS011;9517;51.174;4.160;2024-03-08T13:04:16;25.93;;;14.37;;
18776;SDS011;9517;51.174;4.160;2024-03-08T13:06:44;23.60;;;13.80;;
18776;SDS011;9517;51.174;4.160;2024-03-08T13:09:11;25.83;;;15.23;;
18776;SDS011;9517;51.174;4.160;2024-03-08T13:11:39;24.50;;;14.53;;
18776;SDS011;9517;51.174;4.160;2024-03-08T13:14:08;26.47;;;14.93;;
18776;SDS011;9517;51.174;4.160;2024-03-08T13:16:35;26.90;;;15.03;;
18776;SDS011;9517;51.174;4.160;2024-03-08T13:19:04;28.87;;;14.40;;
18776;SDS011;9517;51.174;4.160;2024-03-08T13:21:31;25.30;;;14.67;;
18776;SDS011;9517;51.174;4.160;2024-03-08T13:23:58;26.70;;;15.50;;
18776;SDS011;9517;51.174;4.160;2024-03-08T13:26:26;25.43;;;14.30;;
18776;SDS011;9517;51.174;4.160;2024-03-08T13:28:58;28.90;;;16.27;;
18776;SDS011;9517;51.174;4.160;2024-03-08T13:31:25;24.30;;;14.30;;
18776;SDS011;9517;51.174;4.160;2024-03-08T13:33:52;24.03;;;15.17;;
18776;SDS011;9517;51.174;4.160;2024-03-08T13:36:24;22.33;;;14.50;;
18776;SDS011;9517;51.174;4.160;2024-03-08T13:38:54;26.00;;;15.63;;
18776;SDS011;9517;51.174;4.160;2024-03-08T13:41:24;25.23;;;15.10;;
18776;SDS011;9517;51.174;4.160;2024-03-08T13:43:51;30.53;;;15.60;;
18776;SDS011;9517;51.174;4.160;2024-03-08T13:46:20;26.13;;;14.47;;
18776;SDS011;9517;51.174;4.160;2024-03-08T13:48:50;25.77;;;15.00;;
18776;SDS011;9517;51.174;4.160;2024-03-08T13:51:18;24.83;;;15.50;;
18776;SDS011;9517;51.174;4.160;2024-03-08T13:53:49;27.33;;;16.00;;
18776;SDS011;9517;51.174;4.160;2024-03-08T13:56:16;25.93;;;15.50;;
18776;SDS011;9517;51.174;4.160;2024-03-08T13:58:43;25.33;;;15.90;;
18776;SDS011;9517;51.174;4.160;2024-03-08T14:01:10;26.50;;;14.90;;
18776;SDS011;9517;51.174;4.160;2024-03-08T14:03:37;25.23;;;14.73;;
18776;SDS011;9517;51.174;4.160;2024-03-08T14:06:07;23.90;;;14.93;;
18776;SDS011;9517;51.174;4.160;2024-03-08T14:08:34;24.60;;;13.97;;
18776;SDS011;9517;51.174;4.160;2024-03-08T14:11:04;27.17;;;14.10;;
18776;SDS011;9517;51.174;4.160;2024-03-08T14:13:40;23.77;;;15.00;;
18776;SDS011;9517;51.174;4.160;2024-03-08T14:16:10;24.63;;;15.57;;
18776;SDS011;9517;51.174;4.160;2024-03-08T14:18:37;27.73;;;15.90;;
18776;SDS011;9517;51.174;4.160;2024-03-08T14:21:04;27.83;;;15.67;;
18776;SDS011;9517;51.174;4.160;2024-03-08T14:23:33;23.13;;;14.17;;
18776;SDS011;9517;51.174;4.160;2024-03-08T14:26:01;28.07;;;15.27;;
18776;SDS011;9517;51.174;4.160;2024-03-08T14:28:31;24.80;;;14.47;;
18776;SDS011;9517;51.174;4.160;2024-03-08T14:30:58;24.80;;;14.33;;
18776;SDS011;9517;51.174;4.160;2024-03-08T14:33:28;26.50;;;14.20;;
18776;SDS011;9517;51.174;4.160;2024-03-08T14:35:55;24.87;;;14.47;;
18776;SDS011;9517;51.174;4.160;2024-03-08T14:38:22;25.83;;;14.37;;
18776;SDS011;9517;51.174;4.160;2024-03-08T14:40:52;26.40;;;15.23;;
18776;SDS011;9517;51.174;4.160;2024-03-08T14:43:20;24.43;;;14.40;;
18776;SDS011;9517;51.174;4.160;2024-03-08T14:45:49;25.03;;;14.33;;
18776;SDS011;9517;51.174;4.160;2024-03-08T14:48:17;23.47;;;14.47;;
18776;SDS011;9517;51.174;4.160;2024-03-08T14:50:45;26.27;;;14.40;;
18776;SDS011;9517;51.174;4.160;2024-03-08T14:53:13;21.87;;;13.77;;
18776;SDS011;9517;51.174;4.160;2024-03-08T14:55:40;25.93;;;14.10;;
18776;SDS011;9517;51.174;4.160;2024-03-08T14:58:09;25.77;;;13.57;;